sensor_id;sensor_type;location;lat;lon;timestamp;P1;durP1;ratioP1;P2;durP2;ratioP2
60859;SDS011;46694;54.382;9.708;2023-02-28T00:02:36;13.18;;;7.20;;
60859;SDS011;46694;54.382;9.708;2023-02-28T00:05:19;11.98;;;8.25;;
60859;SDS011;46694;54.382;9.708;2023-02-28T00:08:01;10.77;;;7.38;;
60859;SDS011;46694;54.382;9.708;2023-02-28T00:10:40;14.77;;;7.18;;
60859;SDS011;46694;54.382;9.708;2023-02-28T00:13:19;11.73;;;6.47;;
60859;SDS011;46694;54.382;9.708;2023-02-28T00:16:03;13.93;;;6.60;;
60859;SDS011;46694;54.382;9.708;2023-02-28T00:18:49;11.65;;;6.07;;
60859;SDS011;46694;54.382;9.708;2023-02-28T00:21:29;14.25;;;7.25;;
60859;SDS011;46694;54.382;9.708;2023-02-28T00:24:09;11.25;;;5.80;;
60859;SDS011;46694;54.382;9.708;2023-02-28T00:26:48;11.70;;;6.60;;
60859;SDS011;46694;54.382;9.708;2023-02-28T00:29:28;17.58;;;7.70;;
60859;SDS011;46694;54.382;9.708;2023-02-28T00:32:07;15.93;;;7.57;;
60859;SDS011;46694;54.382;9.708;2023-02-28T00:34:47;14.10;;;7.18;;
60859;SDS011;46694;54.382;9.708;2023-02-28T00:37:26;17.17;;;7.18;;
60859;SDS011;46694;54.382;9.708;2023-02-28T00:40:06;16.98;;;7.57;;
60859;SDS011;46694;54.382;9.708;2023-02-28T00:42:46;15.15;;;6.97;;
60859;SDS011;46694;54.382;9.708;2023-02-28T00:45:26;13.30;;;6.53;;
60859;SDS011;46694;54.382;9.708;2023-02-28T00:48:06;15.13;;;7.15;;
60859;SDS011;46694;54.382;9.708;2023-02-28T00:50:47;14.25;;;7.07;;
60859;SDS011;46694;54.382;9.708;2023-02-28T00:53:28;11.90;;;6.20;;
60859;SDS011;46694;54.382;9.708;2023-02-28T00:56:07;10.75;;;6.20;;
60859;SDS011;46694;54.382;9.708;2023-02-28T00:58:47;18.55;;;6.97;;
60859;SDS011;46694;54.382;9.708;2023-02-28T01:01:27;11.98;;;6.20;;
60859;SDS011;46694;54.382;9.708;2023-02-28T01:04:06;14.30;;;5.68;;
60859;SDS011;46694;54.382;9.708;2023-02-28T01:06:46;10.25;;;7.05;;
60859;SDS011;46694;54.382;9.708;2023-02-28T01:09:26;15.23;;;6.03;;
60859;SDS011;46694;54.382;9.708;2023-02-28T01:12:06;15.52;;;6.50;;
60859;SDS011;46694;54.382;9.708;2023-02-28T01:14:47;13.10;;;6.63;;
60859;SDS011;46694;54.382;9.708;2023-02-28T01:17:26;13.13;;;7.07;;
60859;SDS011;46694;54.382;9.708;2023-02-28T01:20:06;15.55;;;6.93;;
60859;SDS011;46694;54.382;9.708;2023-02-28T01:22:47;13.68;;;7.47;;
60859;SDS011;46694;54.382;9.708;2023-02-28T01:25:26;11.27;;;6.10;;
60859;SDS011;46694;54.382;9.708;2023-02-28T01:28:06;14.32;;;7.60;;
60859;SDS011;46694;54.382;9.708;2023-02-28T01:30:49;15.25;;;7.00;;
60859;SDS011;46694;54.382;9.708;2023-02-28T01:33:29;11.85;;;7.68;;
60859;SDS011;46694;54.382;9.708;2023-02-28T01:36:11;19.27;;;7.53;;
60859;SDS011;46694;54.382;9.708;2023-02-28T01:38:52;17.45;;;7.53;;
60859;SDS011;46694;54.382;9.708;2023-02-28T01:41:33;12.15;;;7.75;;
60859;SDS011;46694;54.382;9.708;2023-02-28T01:44:55;13.52;;;8.00;;
60859;SDS011;46694;54.382;9.708;2023-02-28T01:47:43;13.85;;;7.32;;
60859;SDS011;46694;54.382;9.708;2023-02-28T01:50:26;12.73;;;7.57;;
60859;SDS011;46694;54.382;9.708;2023-02-28T01:53:13;12.15;;;7.60;;
60859;SDS011;46694;54.382;9.708;2023-02-28T01:55:57;17.50;;;7.10;;
60859;SDS011;46694;54.382;9.708;2023-02-28T01:58:36;9.73;;;7.65;;
60859;SDS011;46694;54.382;9.708;2023-02-28T02:01:16;10.85;;;6.95;;
60859;SDS011;46694;54.382;9.708;2023-02-28T02:04:01;13.32;;;7.75;;
60859;SDS011;46694;54.382;9.708;2023-02-28T02:06:42;15.05;;;7.40;;
60859;SDS011;46694;54.382;9.708;2023-02-28T02:09:24;13.27;;;7.55;;
60859;SDS011;46694;54.382;9.708;2023-02-28T02:12:08;16.92;;;7.20;;
60859;SDS011;46694;54.382;9.708;2023-02-28T02:15:07;21.73;;;7.78;;
60859;SDS011;46694;54.382;9.708;2023-02-28T02:31:20;15.02;;;9.27;;
60859;SDS011;46694;54.382;9.708;2023-02-28T02:37:25;17.80;;;9.10;;
60859;SDS011;46694;54.382;9.708;2023-02-28T02:40:20;13.18;;;7.95;;
60859;SDS011;46694;54.382;9.708;2023-02-28T02:46:21;12.10;;;7.00;;
60859;SDS011;46694;54.382;9.708;2023-02-28T02:49:15;11.48;;;7.10;;
60859;SDS011;46694;54.382;9.708;2023-02-28T02:52:08;11.43;;;7.00;;
60859;SDS011;46694;54.382;9.708;2023-02-28T02:54:51;13.02;;;7.32;;
60859;SDS011;46694;54.382;9.708;2023-02-28T02:57:42;12.60;;;7.50;;
60859;SDS011;46694;54.382;9.708;2023-02-28T03:00:35;11.23;;;7.57;;
60859;SDS011;46694;54.382;9.708;2023-02-28T03:03:20;11.40;;;6.75;;
60859;SDS011;46694;54.382;9.708;2023-02-28T03:06:07;12.52;;;6.75;;
60859;SDS011;46694;54.382;9.708;2023-02-28T03:08:47;14.32;;;7.45;;
60859;SDS011;46694;54.382;9.708;2023-02-28T03:11:26;10.07;;;7.63;;
60859;SDS011;46694;54.382;9.708;2023-02-28T03:14:13;12.13;;;6.90;;
60859;SDS011;46694;54.382;9.708;2023-02-28T03:23:19;16.23;;;7.82;;
60859;SDS011;46694;54.382;9.708;2023-02-28T03:26:04;15.68;;;7.38;;
60859;SDS011;46694;54.382;9.708;2023-02-28T03:29:03;11.80;;;6.82;;
60859;SDS011;46694;54.382;9.708;2023-02-28T03:35:01;17.17;;;7.10;;
60859;SDS011;46694;54.382;9.708;2023-02-28T03:37:50;13.88;;;6.90;;
60859;SDS011;46694;54.382;9.708;2023-02-28T03:40:35;14.13;;;7.60;;
60859;SDS011;46694;54.382;9.708;2023-02-28T03:43:19;10.98;;;7.03;;
60859;SDS011;46694;54.382;9.708;2023-02-28T03:46:07;9.38;;;6.38;;
60859;SDS011;46694;54.382;9.708;2023-02-28T03:49:24;14.85;;;8.65;;
60859;SDS011;46694;54.382;9.708;2023-02-28T03:51:56;22.15;;;8.75;;
60859;SDS011;46694;54.382;9.708;2023-02-28T03:54:42;14.07;;;8.55;;
60859;SDS011;46694;54.382;9.708;2023-02-28T03:57:45;11.18;;;7.50;;
60859;SDS011;46694;54.382;9.708;2023-02-28T04:00:37;12.05;;;7.88;;
60859;SDS011;46694;54.382;9.708;2023-02-28T04:03:23;15.05;;;8.85;;
60859;SDS011;46694;54.382;9.708;2023-02-28T04:06:03;12.43;;;8.23;;
60859;SDS011;46694;54.382;9.708;2023-02-28T04:08:46;11.52;;;8.63;;
60859;SDS011;46694;54.382;9.708;2023-02-28T04:11:32;13.60;;;8.50;;
60859;SDS011;46694;54.382;9.708;2023-02-28T04:14:16;15.00;;;9.07;;
60859;SDS011;46694;54.382;9.708;2023-02-28T04:16:56;15.65;;;9.32;;
60859;SDS011;46694;54.382;9.708;2023-02-28T04:19:35;21.15;;;9.90;;
60859;SDS011;46694;54.382;9.708;2023-02-28T04:22:15;17.08;;;9.77;;
60859;SDS011;46694;54.382;9.708;2023-02-28T04:24:56;13.52;;;9.77;;
60859;SDS011;46694;54.382;9.708;2023-02-28T04:27:35;18.17;;;9.30;;
60859;SDS011;46694;54.382;9.708;2023-02-28T04:30:15;19.90;;;8.70;;
60859;SDS011;46694;54.382;9.708;2023-02-28T04:32:55;12.13;;;8.70;;
60859;SDS011;46694;54.382;9.708;2023-02-28T04:35:35;15.20;;;9.30;;
60859;SDS011;46694;54.382;9.708;2023-02-28T04:38:14;15.85;;;8.55;;
60859;SDS011;46694;54.382;9.708;2023-02-28T04:40:56;17.67;;;9.27;;
60859;SDS011;46694;54.382;9.708;2023-02-28T04:43:37;15.15;;;9.48;;
60859;SDS011;46694;54.382;9.708;2023-02-28T04:46:17;12.30;;;8.65;;
60859;SDS011;46694;54.382;9.708;2023-02-28T04:48:57;17.50;;;10.73;;
60859;SDS011;46694;54.382;9.708;2023-02-28T04:51:36;17.15;;;9.73;;
60859;SDS011;46694;54.382;9.708;2023-02-28T04:54:16;11.57;;;9.13;;
60859;SDS011;46694;54.382;9.708;2023-02-28T04:56:56;13.73;;;8.82;;
60859;SDS011;46694;54.382;9.708;2023-02-28T04:59:36;13.25;;;9.57;;
60859;SDS011;46694;54.382;9.708;2023-02-28T05:02:15;11.38;;;9.65;;
60859;SDS011;46694;54.382;9.708;2023-02-28T05:04:55;19.70;;;11.95;;
60859;SDS011;46694;54.382;9.708;2023-02-28T05:07:34;16.08;;;9.90;;
60859;SDS011;46694;54.382;9.708;2023-02-28T05:10:14;17.30;;;10.00;;
60859;SDS011;46694;54.382;9.708;2023-02-28T05:12:54;18.77;;;10.55;;
60859;SDS011;46694;54.382;9.708;2023-02-28T05:15:34;19.80;;;9.50;;
60859;SDS011;46694;54.382;9.708;2023-02-28T05:18:13;17.45;;;10.60;;
60859;SDS011;46694;54.382;9.708;2023-02-28T05:20:53;15.43;;;11.85;;
60859;SDS011;46694;54.382;9.708;2023-02-28T05:23:33;19.52;;;12.05;;
60859;SDS011;46694;54.382;9.708;2023-02-28T05:26:12;17.65;;;11.68;;
60859;SDS011;46694;54.382;9.708;2023-02-28T05:28:52;23.25;;;11.68;;
60859;SDS011;46694;54.382;9.708;2023-02-28T05:31:32;21.25;;;11.00;;
60859;SDS011;46694;54.382;9.708;2023-02-28T05:34:12;23.80;;;13.00;;
60859;SDS011;46694;54.382;9.708;2023-02-28T05:36:53;15.68;;;10.98;;
60859;SDS011;46694;54.382;9.708;2023-02-28T05:39:33;15.55;;;10.32;;
60859;SDS011;46694;54.382;9.708;2023-02-28T05:42:12;16.05;;;10.82;;
60859;SDS011;46694;54.382;9.708;2023-02-28T05:44:52;19.85;;;12.15;;
60859;SDS011;46694;54.382;9.708;2023-02-28T05:47:31;17.88;;;11.57;;
60859;SDS011;46694;54.382;9.708;2023-02-28T05:50:11;15.93;;;11.57;;
60859;SDS011;46694;54.382;9.708;2023-02-28T05:52:51;18.15;;;12.25;;
60859;SDS011;46694;54.382;9.708;2023-02-28T05:55:31;16.95;;;11.77;;
60859;SDS011;46694;54.382;9.708;2023-02-28T05:58:11;17.90;;;12.93;;
60859;SDS011;46694;54.382;9.708;2023-02-28T06:00:51;21.95;;;12.20;;
60859;SDS011;46694;54.382;9.708;2023-02-28T06:03:30;26.70;;;12.60;;
60859;SDS011;46694;54.382;9.708;2023-02-28T06:06:09;15.98;;;11.45;;
60859;SDS011;46694;54.382;9.708;2023-02-28T06:08:49;15.98;;;12.00;;
60859;SDS011;46694;54.382;9.708;2023-02-28T06:11:29;21.58;;;12.35;;
60859;SDS011;46694;54.382;9.708;2023-02-28T06:14:12;21.33;;;11.68;;
60859;SDS011;46694;54.382;9.708;2023-02-28T06:16:57;16.42;;;10.70;;
60859;SDS011;46694;54.382;9.708;2023-02-28T06:19:38;17.40;;;11.32;;
60859;SDS011;46694;54.382;9.708;2023-02-28T06:22:18;16.55;;;12.35;;
60859;SDS011;46694;54.382;9.708;2023-02-28T06:24:58;18.75;;;11.48;;
60859;SDS011;46694;54.382;9.708;2023-02-28T06:27:37;14.88;;;11.65;;
60859;SDS011;46694;54.382;9.708;2023-02-28T06:30:17;21.85;;;11.60;;
60859;SDS011;46694;54.382;9.708;2023-02-28T06:32:56;17.10;;;11.60;;
60859;SDS011;46694;54.382;9.708;2023-02-28T06:35:36;16.25;;;11.85;;
60859;SDS011;46694;54.382;9.708;2023-02-28T06:38:17;23.52;;;11.27;;
60859;SDS011;46694;54.382;9.708;2023-02-28T06:40:58;17.65;;;11.27;;
60859;SDS011;46694;54.382;9.708;2023-02-28T06:43:40;22.05;;;12.35;;
60859;SDS011;46694;54.382;9.708;2023-02-28T06:46:20;22.80;;;14.38;;
60859;SDS011;46694;54.382;9.708;2023-02-28T06:49:00;20.58;;;12.57;;
60859;SDS011;46694;54.382;9.708;2023-02-28T06:51:43;19.05;;;11.95;;
60859;SDS011;46694;54.382;9.708;2023-02-28T06:54:23;19.45;;;12.80;;
60859;SDS011;46694;54.382;9.708;2023-02-28T06:57:03;19.05;;;12.38;;
60859;SDS011;46694;54.382;9.708;2023-02-28T06:59:43;26.25;;;13.18;;
60859;SDS011;46694;54.382;9.708;2023-02-28T07:02:22;23.52;;;13.43;;
60859;SDS011;46694;54.382;9.708;2023-02-28T07:05:02;24.13;;;13.10;;
60859;SDS011;46694;54.382;9.708;2023-02-28T07:07:42;21.80;;;13.45;;
60859;SDS011;46694;54.382;9.708;2023-02-28T07:10:23;22.10;;;13.98;;
60859;SDS011;46694;54.382;9.708;2023-02-28T07:13:03;20.98;;;14.77;;
60859;SDS011;46694;54.382;9.708;2023-02-28T07:15:44;24.52;;;13.65;;
60859;SDS011;46694;54.382;9.708;2023-02-28T07:18:32;23.92;;;14.25;;
60859;SDS011;46694;54.382;9.708;2023-02-28T07:21:11;23.15;;;14.85;;
60859;SDS011;46694;54.382;9.708;2023-02-28T07:23:51;20.55;;;11.82;;
60859;SDS011;46694;54.382;9.708;2023-02-28T07:26:31;17.70;;;11.50;;
60859;SDS011;46694;54.382;9.708;2023-02-28T07:29:12;20.52;;;11.60;;
60859;SDS011;46694;54.382;9.708;2023-02-28T07:31:52;18.75;;;10.90;;
60859;SDS011;46694;54.382;9.708;2023-02-28T07:34:32;16.13;;;11.45;;
60859;SDS011;46694;54.382;9.708;2023-02-28T07:37:11;16.88;;;11.52;;
60859;SDS011;46694;54.382;9.708;2023-02-28T07:39:51;26.15;;;17.40;;
60859;SDS011;46694;54.382;9.708;2023-02-28T07:42:30;18.85;;;13.52;;
60859;SDS011;46694;54.382;9.708;2023-02-28T07:45:11;17.90;;;11.70;;
60859;SDS011;46694;54.382;9.708;2023-02-28T07:47:50;20.08;;;12.32;;
60859;SDS011;46694;54.382;9.708;2023-02-28T07:50:30;21.08;;;11.48;;
60859;SDS011;46694;54.382;9.708;2023-02-28T07:53:09;21.50;;;11.88;;
60859;SDS011;46694;54.382;9.708;2023-02-28T07:55:49;13.68;;;10.57;;
60859;SDS011;46694;54.382;9.708;2023-02-28T07:58:29;23.00;;;13.15;;
60859;SDS011;46694;54.382;9.708;2023-02-28T08:01:10;21.48;;;13.30;;
60859;SDS011;46694;54.382;9.708;2023-02-28T08:03:50;25.05;;;10.95;;
60859;SDS011;46694;54.382;9.708;2023-02-28T08:06:29;22.67;;;10.55;;
60859;SDS011;46694;54.382;9.708;2023-02-28T08:09:09;16.30;;;9.98;;
60859;SDS011;46694;54.382;9.708;2023-02-28T08:11:49;18.13;;;12.52;;
60859;SDS011;46694;54.382;9.708;2023-02-28T08:14:29;18.88;;;11.25;;
60859;SDS011;46694;54.382;9.708;2023-02-28T08:17:09;16.45;;;11.00;;
60859;SDS011;46694;54.382;9.708;2023-02-28T08:19:49;16.17;;;9.45;;
60859;SDS011;46694;54.382;9.708;2023-02-28T08:22:29;17.48;;;9.40;;
60859;SDS011;46694;54.382;9.708;2023-02-28T08:25:09;11.75;;;8.52;;
60859;SDS011;46694;54.382;9.708;2023-02-28T08:27:50;17.40;;;8.87;;
60859;SDS011;46694;54.382;9.708;2023-02-28T08:30:30;12.33;;;7.63;;
60859;SDS011;46694;54.382;9.708;2023-02-28T08:33:10;16.70;;;6.97;;
60859;SDS011;46694;54.382;9.708;2023-02-28T08:35:53;13.83;;;6.43;;
60859;SDS011;46694;54.382;9.708;2023-02-28T08:38:36;12.17;;;5.50;;
60859;SDS011;46694;54.382;9.708;2023-02-28T08:41:16;20.90;;;5.17;;
60859;SDS011;46694;54.382;9.708;2023-02-28T08:43:56;13.30;;;4.80;;
60859;SDS011;46694;54.382;9.708;2023-02-28T08:46:36;12.90;;;4.70;;
60859;SDS011;46694;54.382;9.708;2023-02-28T08:49:16;10.23;;;4.30;;
60859;SDS011;46694;54.382;9.708;2023-02-28T08:51:57;14.30;;;3.77;;
60859;SDS011;46694;54.382;9.708;2023-02-28T08:54:36;13.23;;;4.53;;
60859;SDS011;46694;54.382;9.708;2023-02-28T08:57:16;8.90;;;4.33;;
60859;SDS011;46694;54.382;9.708;2023-02-28T08:59:55;7.80;;;4.00;;
60859;SDS011;46694;54.382;9.708;2023-02-28T09:02:36;9.97;;;4.77;;
60859;SDS011;46694;54.382;9.708;2023-02-28T09:05:16;6.47;;;3.67;;
60859;SDS011;46694;54.382;9.708;2023-02-28T09:07:55;10.00;;;5.20;;
60859;SDS011;46694;54.382;9.708;2023-02-28T09:10:35;21.03;;;7.10;;
60859;SDS011;46694;54.382;9.708;2023-02-28T09:13:15;17.13;;;5.77;;
60859;SDS011;46694;54.382;9.708;2023-02-28T09:15:56;9.43;;;5.27;;
60859;SDS011;46694;54.382;9.708;2023-02-28T09:18:37;12.10;;;6.93;;
60859;SDS011;46694;54.382;9.708;2023-02-28T09:21:19;16.37;;;7.00;;
60859;SDS011;46694;54.382;9.708;2023-02-28T09:23:59;12.43;;;6.43;;
60859;SDS011;46694;54.382;9.708;2023-02-28T09:26:38;11.90;;;5.73;;
60859;SDS011;46694;54.382;9.708;2023-02-28T09:29:17;13.97;;;6.47;;
60859;SDS011;46694;54.382;9.708;2023-02-28T09:32:03;9.83;;;6.30;;
60859;SDS011;46694;54.382;9.708;2023-02-28T09:34:44;11.10;;;6.17;;
60859;SDS011;46694;54.382;9.708;2023-02-28T09:37:23;6.43;;;4.40;;
60859;SDS011;46694;54.382;9.708;2023-02-28T09:40:05;10.40;;;4.20;;
60859;SDS011;46694;54.382;9.708;2023-02-28T09:42:45;7.50;;;4.97;;
60859;SDS011;46694;54.382;9.708;2023-02-28T09:46:02;6.17;;;4.80;;
60859;SDS011;46694;54.382;9.708;2023-02-28T09:48:41;6.90;;;5.00;;
60859;SDS011;46694;54.382;9.708;2023-02-28T09:51:45;9.10;;;5.77;;
60859;SDS011;46694;54.382;9.708;2023-02-28T09:54:30;8.90;;;4.57;;
60859;SDS011;46694;54.382;9.708;2023-02-28T09:57:17;9.27;;;5.60;;
60859;SDS011;46694;54.382;9.708;2023-02-28T10:06:01;13.33;;;6.10;;
60859;SDS011;46694;54.382;9.708;2023-02-28T10:11:39;11.27;;;5.23;;
60859;SDS011;46694;54.382;9.708;2023-02-28T10:14:24;8.70;;;5.17;;
60859;SDS011;46694;54.382;9.708;2023-02-28T10:17:11;8.30;;;4.37;;
60859;SDS011;46694;54.382;9.708;2023-02-28T10:20:02;26.03;;;5.47;;
60859;SDS011;46694;54.382;9.708;2023-02-28T10:22:53;6.53;;;4.27;;
60859;SDS011;46694;54.382;9.708;2023-02-28T10:25:53;10.07;;;6.03;;
60859;SDS011;46694;54.382;9.708;2023-02-28T10:28:39;8.73;;;6.53;;
60859;SDS011;46694;54.382;9.708;2023-02-28T10:31:20;9.90;;;4.67;;
60859;SDS011;46694;54.382;9.708;2023-02-28T10:33:59;8.73;;;5.37;;
60859;SDS011;46694;54.382;9.708;2023-02-28T10:36:39;6.77;;;4.93;;
60859;SDS011;46694;54.382;9.708;2023-02-28T10:42:28;12.37;;;6.17;;
60859;SDS011;46694;54.382;9.708;2023-02-28T10:53:31;13.50;;;4.63;;
60859;SDS011;46694;54.382;9.708;2023-02-28T10:56:31;7.10;;;4.10;;
60859;SDS011;46694;54.382;9.708;2023-02-28T11:02:14;8.37;;;4.47;;
60859;SDS011;46694;54.382;9.708;2023-02-28T11:08:13;7.17;;;4.80;;
60859;SDS011;46694;54.382;9.708;2023-02-28T11:10:56;10.10;;;4.63;;
60859;SDS011;46694;54.382;9.708;2023-02-28T11:13:37;5.07;;;4.37;;
60859;SDS011;46694;54.382;9.708;2023-02-28T11:16:17;6.57;;;5.17;;
60859;SDS011;46694;54.382;9.708;2023-02-28T11:18:57;5.67;;;4.70;;
60859;SDS011;46694;54.382;9.708;2023-02-28T11:21:38;8.93;;;4.00;;
60859;SDS011;46694;54.382;9.708;2023-02-28T11:24:26;9.17;;;4.93;;
60859;SDS011;46694;54.382;9.708;2023-02-28T11:30:51;5.77;;;5.17;;
60859;SDS011;46694;54.382;9.708;2023-02-28T11:33:24;13.97;;;8.43;;
60859;SDS011;46694;54.382;9.708;2023-02-28T11:36:15;13.00;;;6.70;;
60859;SDS011;46694;54.382;9.708;2023-02-28T11:39:00;15.57;;;5.37;;
60859;SDS011;46694;54.382;9.708;2023-02-28T11:47:45;4.93;;;4.30;;
60859;SDS011;46694;54.382;9.708;2023-02-28T11:53:55;6.23;;;4.20;;
60859;SDS011;46694;54.382;9.708;2023-02-28T12:02:51;6.33;;;4.70;;
60859;SDS011;46694;54.382;9.708;2023-02-28T12:12:50;6.77;;;4.50;;
60859;SDS011;46694;54.382;9.708;2023-02-28T12:16:01;3.97;;;3.47;;
60859;SDS011;46694;54.382;9.708;2023-02-28T12:26:07;4.07;;;3.63;;
60859;SDS011;46694;54.382;9.708;2023-02-28T12:29:21;12.10;;;4.10;;
60859;SDS011;46694;54.382;9.708;2023-02-28T12:32:18;6.10;;;4.13;;
60859;SDS011;46694;54.382;9.708;2023-02-28T12:35:05;4.80;;;3.33;;
60859;SDS011;46694;54.382;9.708;2023-02-28T12:41:02;3.80;;;3.50;;
60859;SDS011;46694;54.382;9.708;2023-02-28T12:43:57;6.67;;;3.87;;
60859;SDS011;46694;54.382;9.708;2023-02-28T12:46:44;3.83;;;2.97;;
60859;SDS011;46694;54.382;9.708;2023-02-28T12:55:46;6.33;;;3.63;;
60859;SDS011;46694;54.382;9.708;2023-02-28T12:58:50;5.87;;;3.87;;
60859;SDS011;46694;54.382;9.708;2023-02-28T13:01:38;6.87;;;3.67;;
60859;SDS011;46694;54.382;9.708;2023-02-28T13:04:46;8.10;;;3.43;;
60859;SDS011;46694;54.382;9.708;2023-02-28T13:11:39;6.33;;;3.90;;
60859;SDS011;46694;54.382;9.708;2023-02-28T13:17:17;5.37;;;4.07;;
60859;SDS011;46694;54.382;9.708;2023-02-28T13:20:14;7.00;;;4.33;;
60859;SDS011;46694;54.382;9.708;2023-02-28T13:26:19;8.40;;;4.90;;
60859;SDS011;46694;54.382;9.708;2023-02-28T13:37:41;4.33;;;3.93;;
60859;SDS011;46694;54.382;9.708;2023-02-28T13:40:28;5.50;;;3.90;;
60859;SDS011;46694;54.382;9.708;2023-02-28T13:43:18;7.47;;;4.43;;
60859;SDS011;46694;54.382;9.708;2023-02-28T13:46:09;4.90;;;3.93;;
60859;SDS011;46694;54.382;9.708;2023-02-28T13:48:51;4.57;;;3.87;;
60859;SDS011;46694;54.382;9.708;2023-02-28T14:01:38;6.17;;;4.23;;
60859;SDS011;46694;54.382;9.708;2023-02-28T14:08:20;5.83;;;5.30;;
60859;SDS011;46694;54.382;9.708;2023-02-28T14:11:04;5.73;;;4.90;;
60859;SDS011;46694;54.382;9.708;2023-02-28T14:17:14;9.30;;;7.27;;
60859;SDS011;46694;54.382;9.708;2023-02-28T14:19:56;10.60;;;6.90;;
60859;SDS011;46694;54.382;9.708;2023-02-28T14:22:47;6.60;;;6.00;;
60859;SDS011;46694;54.382;9.708;2023-02-28T14:25:53;9.80;;;6.67;;
60859;SDS011;46694;54.382;9.708;2023-02-28T14:32:02;8.17;;;6.60;;
60859;SDS011;46694;54.382;9.708;2023-02-28T14:35:35;7.87;;;6.37;;
60859;SDS011;46694;54.382;9.708;2023-02-28T14:38:25;8.13;;;7.43;;
60859;SDS011;46694;54.382;9.708;2023-02-28T14:41:17;6.80;;;6.13;;
60859;SDS011;46694;54.382;9.708;2023-02-28T14:44:25;9.47;;;7.13;;
60859;SDS011;46694;54.382;9.708;2023-02-28T14:47:11;7.27;;;6.43;;
60859;SDS011;46694;54.382;9.708;2023-02-28T14:49:54;10.90;;;8.10;;
60859;SDS011;46694;54.382;9.708;2023-02-28T14:52:34;9.80;;;7.60;;
60859;SDS011;46694;54.382;9.708;2023-02-28T14:55:15;8.93;;;7.83;;
60859;SDS011;46694;54.382;9.708;2023-02-28T14:57:58;10.53;;;8.10;;
60859;SDS011;46694;54.382;9.708;2023-02-28T15:00:49;9.00;;;7.50;;
60859;SDS011;46694;54.382;9.708;2023-02-28T15:03:35;9.20;;;8.40;;
60859;SDS011;46694;54.382;9.708;2023-02-28T15:06:18;9.83;;;8.83;;
60859;SDS011;46694;54.382;9.708;2023-02-28T15:09:09;8.07;;;7.37;;
60859;SDS011;46694;54.382;9.708;2023-02-28T15:11:55;11.63;;;8.47;;
60859;SDS011;46694;54.382;9.708;2023-02-28T15:14:34;11.30;;;7.43;;
60859;SDS011;46694;54.382;9.708;2023-02-28T15:17:19;7.80;;;7.10;;
60859;SDS011;46694;54.382;9.708;2023-02-28T15:20:03;8.83;;;7.90;;
60859;SDS011;46694;54.382;9.708;2023-02-28T15:22:43;10.10;;;7.53;;
60859;SDS011;46694;54.382;9.708;2023-02-28T15:25:25;9.43;;;8.50;;
60859;SDS011;46694;54.382;9.708;2023-02-28T15:28:05;9.70;;;8.80;;
60859;SDS011;46694;54.382;9.708;2023-02-28T15:30:55;8.93;;;8.13;;
60859;SDS011;46694;54.382;9.708;2023-02-28T15:33:38;8.93;;;8.10;;
60859;SDS011;46694;54.382;9.708;2023-02-28T15:36:36;7.60;;;6.97;;
60859;SDS011;46694;54.382;9.708;2023-02-28T15:39:23;11.83;;;6.87;;
60859;SDS011;46694;54.382;9.708;2023-02-28T15:42:12;8.40;;;7.50;;
60859;SDS011;46694;54.382;9.708;2023-02-28T15:44:58;8.23;;;7.33;;
60859;SDS011;46694;54.382;9.708;2023-02-28T15:47:38;7.70;;;6.90;;
60859;SDS011;46694;54.382;9.708;2023-02-28T15:50:18;9.47;;;6.60;;
60859;SDS011;46694;54.382;9.708;2023-02-28T15:52:57;13.23;;;6.70;;
60859;SDS011;46694;54.382;9.708;2023-02-28T15:55:38;11.50;;;7.07;;
60859;SDS011;46694;54.382;9.708;2023-02-28T15:58:18;6.73;;;6.10;;
60859;SDS011;46694;54.382;9.708;2023-02-28T16:04:18;9.98;;;6.72;;
60859;SDS011;46694;54.382;9.708;2023-02-28T16:09:38;8.15;;;6.75;;
60859;SDS011;46694;54.382;9.708;2023-02-28T16:12:18;10.65;;;7.22;;
60859;SDS011;46694;54.382;9.708;2023-02-28T16:15:06;9.77;;;6.73;;
60859;SDS011;46694;54.382;9.708;2023-02-28T16:21:43;7.75;;;6.95;;
60859;SDS011;46694;54.382;9.708;2023-02-28T16:24:24;10.23;;;7.30;;
60859;SDS011;46694;54.382;9.708;2023-02-28T16:27:03;11.95;;;7.50;;
60859;SDS011;46694;54.382;9.708;2023-02-28T16:29:43;10.02;;;7.70;;
60859;SDS011;46694;54.382;9.708;2023-02-28T16:32:23;8.35;;;6.93;;
60859;SDS011;46694;54.382;9.708;2023-02-28T16:35:03;9.88;;;7.20;;
60859;SDS011;46694;54.382;9.708;2023-02-28T16:37:44;13.23;;;7.85;;
60859;SDS011;46694;54.382;9.708;2023-02-28T16:40:24;8.38;;;6.95;;
60859;SDS011;46694;54.382;9.708;2023-02-28T16:43:07;9.85;;;7.15;;
60859;SDS011;46694;54.382;9.708;2023-02-28T16:45:55;8.07;;;6.75;;
60859;SDS011;46694;54.382;9.708;2023-02-28T16:48:36;7.82;;;7.03;;
60859;SDS011;46694;54.382;9.708;2023-02-28T16:51:16;10.35;;;7.18;;
60859;SDS011;46694;54.382;9.708;2023-02-28T16:53:56;8.95;;;6.95;;
60859;SDS011;46694;54.382;9.708;2023-02-28T16:56:36;13.68;;;6.85;;
60859;SDS011;46694;54.382;9.708;2023-02-28T16:59:22;13.63;;;7.10;;
60859;SDS011;46694;54.382;9.708;2023-02-28T17:02:08;10.23;;;7.18;;
60859;SDS011;46694;54.382;9.708;2023-02-28T17:04:51;11.15;;;6.88;;
60859;SDS011;46694;54.382;9.708;2023-02-28T17:07:30;8.43;;;6.88;;
60859;SDS011;46694;54.382;9.708;2023-02-28T17:10:14;11.18;;;8.00;;
60859;SDS011;46694;54.382;9.708;2023-02-28T17:13:02;11.40;;;7.47;;
60859;SDS011;46694;54.382;9.708;2023-02-28T17:15:42;13.48;;;8.60;;
60859;SDS011;46694;54.382;9.708;2023-02-28T17:18:25;10.48;;;8.18;;
60859;SDS011;46694;54.382;9.708;2023-02-28T17:21:15;12.15;;;9.75;;
60859;SDS011;46694;54.382;9.708;2023-02-28T17:23:58;13.55;;;9.15;;
60859;SDS011;46694;54.382;9.708;2023-02-28T17:26:39;15.23;;;9.23;;
60859;SDS011;46694;54.382;9.708;2023-02-28T17:29:21;12.73;;;9.05;;
60859;SDS011;46694;54.382;9.708;2023-02-28T17:32:01;16.23;;;9.43;;
60859;SDS011;46694;54.382;9.708;2023-02-28T17:34:40;13.45;;;10.07;;
60859;SDS011;46694;54.382;9.708;2023-02-28T17:37:19;18.05;;;9.85;;
60859;SDS011;46694;54.382;9.708;2023-02-28T17:39:59;17.25;;;10.82;;
60859;SDS011;46694;54.382;9.708;2023-02-28T17:42:39;25.08;;;11.07;;
60859;SDS011;46694;54.382;9.708;2023-02-28T17:45:19;13.93;;;10.20;;
60859;SDS011;46694;54.382;9.708;2023-02-28T17:47:58;16.20;;;11.02;;
60859;SDS011;46694;54.382;9.708;2023-02-28T17:50:38;17.70;;;11.40;;
60859;SDS011;46694;54.382;9.708;2023-02-28T17:53:17;16.10;;;10.85;;
60859;SDS011;46694;54.382;9.708;2023-02-28T17:55:56;21.63;;;12.20;;
60859;SDS011;46694;54.382;9.708;2023-02-28T17:58:36;18.65;;;11.27;;
60859;SDS011;46694;54.382;9.708;2023-02-28T18:01:16;17.35;;;10.85;;
60859;SDS011;46694;54.382;9.708;2023-02-28T18:03:56;18.73;;;12.23;;
60859;SDS011;46694;54.382;9.708;2023-02-28T18:06:36;22.38;;;13.23;;
60859;SDS011;46694;54.382;9.708;2023-02-28T18:09:25;23.90;;;11.73;;
60859;SDS011;46694;54.382;9.708;2023-02-28T18:12:05;18.60;;;10.88;;
60859;SDS011;46694;54.382;9.708;2023-02-28T18:14:45;18.88;;;13.02;;
60859;SDS011;46694;54.382;9.708;2023-02-28T18:17:26;22.75;;;12.35;;
60859;SDS011;46694;54.382;9.708;2023-02-28T18:20:06;24.13;;;12.55;;
60859;SDS011;46694;54.382;9.708;2023-02-28T18:22:48;25.52;;;12.93;;
60859;SDS011;46694;54.382;9.708;2023-02-28T18:25:27;18.45;;;11.85;;
60859;SDS011;46694;54.382;9.708;2023-02-28T18:28:07;19.60;;;13.25;;
60859;SDS011;46694;54.382;9.708;2023-02-28T18:30:47;21.95;;;14.77;;
60859;SDS011;46694;54.382;9.708;2023-02-28T18:33:26;20.58;;;14.65;;
60859;SDS011;46694;54.382;9.708;2023-02-28T18:36:06;22.50;;;14.57;;
60859;SDS011;46694;54.382;9.708;2023-02-28T18:38:47;26.27;;;14.30;;